sensor_id;sensor_type;location;lat;lon;timestamp;pressure;altitude;pressure_sealevel;temperature
40045;BMP280;25735;48.122;11.422;2023-01-16T00:01:11;94276.75;;;1.36
40045;BMP280;25735;48.122;11.422;2023-01-16T00:03:36;94283.72;;;1.34
40045;BMP280;25735;48.122;11.422;2023-01-16T00:06:02;94270.63;;;1.36
40045;BMP280;25735;48.122;11.422;2023-01-16T00:08:27;94267.09;;;1.39
40045;BMP280;25735;48.122;11.422;2023-01-16T00:10:52;94263.00;;;1.46
40045;BMP280;25735;48.122;11.422;2023-01-16T00:13:18;94262.81;;;1.41
40045;BMP280;25735;48.122;11.422;2023-01-16T00:15:49;94255.00;;;1.55
40045;BMP280;25735;48.122;11.422;2023-01-16T00:18:14;94242.34;;;1.56
40045;BMP280;25735;48.122;11.422;2023-01-16T00:20:39;94247.41;;;1.54
40045;BMP280;25735;48.122;11.422;2023-01-16T00:23:05;94246.34;;;1.51
40045;BMP280;25735;48.122;11.422;2023-01-16T00:25:30;94235.38;;;1.58
40045;BMP280;25735;48.122;11.422;2023-01-16T00:27:55;94242.84;;;1.63
40045;BMP280;25735;48.122;11.422;2023-01-16T00:30:21;94234.22;;;1.68
40045;BMP280;25735;48.122;11.422;2023-01-16T00:32:46;94224.56;;;1.70
40045;BMP280;25735;48.122;11.422;2023-01-16T00:35:11;94225.03;;;1.69
40045;BMP280;25735;48.122;11.422;2023-01-16T00:37:37;94212.53;;;1.75
40045;BMP280;25735;48.122;11.422;2023-01-16T00:40:02;94217.59;;;1.73
40045;BMP280;25735;48.122;11.422;2023-01-16T00:42:28;94226.38;;;1.73
40045;BMP280;25735;48.122;11.422;2023-01-16T00:44:53;94222.63;;;1.71
40045;BMP280;25735;48.122;11.422;2023-01-16T00:47:18;94213.00;;;1.73
40045;BMP280;25735;48.122;11.422;2023-01-16T00:49:44;94213.00;;;1.73
40045;BMP280;25735;48.122;11.422;2023-01-16T00:52:09;94200.94;;;1.78
40045;BMP280;25735;48.122;11.422;2023-01-16T00:54:34;94197.97;;;1.76
40045;BMP280;25735;48.122;11.422;2023-01-16T00:56:59;94198.75;;;1.85
40045;BMP280;25735;48.122;11.422;2023-01-16T00:59:24;94191.00;;;1.87
40045;BMP280;25735;48.122;11.422;2023-01-16T01:01:50;94183.25;;;1.80
40045;BMP280;25735;48.122;11.422;2023-01-16T01:04:15;94184.31;;;1.83
40045;BMP280;25735;48.122;11.422;2023-01-16T01:06:41;94178.94;;;1.83
40045;BMP280;25735;48.122;11.422;2023-01-16T01:09:07;94179.25;;;1.85
40045;BMP280;25735;48.122;11.422;2023-01-16T01:11:32;94167.03;;;1.84
40045;BMP280;25735;48.122;11.422;2023-01-16T01:13:58;94174.78;;;1.82
40045;BMP280;25735;48.122;11.422;2023-01-16T01:16:23;94161.41;;;1.91
40045;BMP280;25735;48.122;11.422;2023-01-16T01:18:49;94160.22;;;1.83
40045;BMP280;25735;48.122;11.422;2023-01-16T01:21:14;94164.09;;;1.82
40045;BMP280;25735;48.122;11.422;2023-01-16T01:23:40;94158.72;;;1.82
40045;BMP280;25735;48.122;11.422;2023-01-16T01:26:09;94151.56;;;1.79
40045;BMP280;25735;48.122;11.422;2023-01-16T01:28:36;94154.72;;;1.86
40045;BMP280;25735;48.122;11.422;2023-01-16T01:31:03;94144.41;;;1.85
40045;BMP280;25735;48.122;11.422;2023-01-16T01:33:29;94144.13;;;1.83
40045;BMP280;25735;48.122;11.422;2023-01-16T01:35:54;94143.72;;;1.93
40045;BMP280;25735;48.122;11.422;2023-01-16T01:38:19;94138.78;;;1.83
40045;BMP280;25735;48.122;11.422;2023-01-16T01:40:44;94128.66;;;1.87
40045;BMP280;25735;48.122;11.422;2023-01-16T01:43:14;94122.44;;;1.90
40045;BMP280;25735;48.122;11.422;2023-01-16T01:45:43;94124.81;;;1.96
40045;BMP280;25735;48.122;11.422;2023-01-16T01:53:32;94112.31;;;1.94
40045;BMP280;25735;48.122;11.422;2023-01-16T01:56:06;94107.53;;;1.97
40045;BMP280;25735;48.122;11.422;2023-01-16T01:58:34;94105.75;;;1.95
40045;BMP280;25735;48.122;11.422;2023-01-16T02:01:00;94104.13;;;1.97
40045;BMP280;25735;48.122;11.422;2023-01-16T02:03:33;94093.13;;;1.95
40045;BMP280;25735;48.122;11.422;2023-01-16T02:06:00;94083.16;;;1.96
40045;BMP280;25735;48.122;11.422;2023-01-16T02:08:31;94078.97;;;1.86
40045;BMP280;25735;48.122;11.422;2023-01-16T02:11:07;94080.75;;;1.97
40045;BMP280;25735;48.122;11.422;2023-01-16T02:13:37;94074.94;;;1.81
40045;BMP280;25735;48.122;11.422;2023-01-16T02:16:03;94071.53;;;1.81
40045;BMP280;25735;48.122;11.422;2023-01-16T02:18:47;94066.16;;;1.81
40045;BMP280;25735;48.122;11.422;2023-01-16T02:27:57;94040.00;;;1.76
40045;BMP280;25735;48.122;11.422;2023-01-16T02:30:48;94037.00;;;1.74
40045;BMP280;25735;48.122;11.422;2023-01-16T02:36:07;94015.28;;;1.72
40045;BMP280;25735;48.122;11.422;2023-01-16T02:48:59;93998.03;;;1.73
40045;BMP280;25735;48.122;11.422;2023-01-16T02:54:07;93990.00;;;1.73
40045;BMP280;25735;48.122;11.422;2023-01-16T02:56:56;93984.94;;;1.66
40045;BMP280;25735;48.122;11.422;2023-01-16T02:59:23;93985.22;;;1.68
40045;BMP280;25735;48.122;11.422;2023-01-16T03:01:49;93972.00;;;1.65
40045;BMP280;25735;48.122;11.422;2023-01-16T03:04:41;93978.69;;;1.69
40045;BMP280;25735;48.122;11.422;2023-01-16T03:10:04;93973.50;;;1.66
40045;BMP280;25735;48.122;11.422;2023-01-16T03:15:30;93960.84;;;1.57
40045;BMP280;25735;48.122;11.422;2023-01-16T03:18:10;93947.00;;;1.50
40045;BMP280;25735;48.122;11.422;2023-01-16T03:26:15;93926.34;;;1.41
40045;BMP280;25735;48.122;11.422;2023-01-16T03:31:43;93925.75;;;1.38
40045;BMP280;25735;48.122;11.422;2023-01-16T03:34:12;93907.44;;;1.36
40045;BMP280;25735;48.122;11.422;2023-01-16T03:39:30;93901.81;;;1.43
40045;BMP280;25735;48.122;11.422;2023-01-16T03:42:04;93889.47;;;1.28
40045;BMP280;25735;48.122;11.422;2023-01-16T03:44:35;93889.91;;;1.44
40045;BMP280;25735;48.122;11.422;2023-01-16T03:47:01;93883.50;;;1.33
40045;BMP280;25735;48.122;11.422;2023-01-16T03:49:43;93871.34;;;1.40
40045;BMP280;25735;48.122;11.422;2023-01-16T03:52:12;93863.44;;;1.28
40045;BMP280;25735;48.122;11.422;2023-01-16T03:54:55;93873.72;;;1.21
40045;BMP280;25735;48.122;11.422;2023-01-16T03:57:37;93870.13;;;1.15
40045;BMP280;25735;48.122;11.422;2023-01-16T04:00:04;93861.22;;;1.09
40045;BMP280;25735;48.122;11.422;2023-01-16T04:02:53;93843.09;;;1.13
40045;BMP280;25735;48.122;11.422;2023-01-16T04:05:31;93842.78;;;0.93
40045;BMP280;25735;48.122;11.422;2023-01-16T04:08:02;93841.44;;;0.89
40045;BMP280;25735;48.122;11.422;2023-01-16T04:10:33;93845.16;;;0.91
40045;BMP280;25735;48.122;11.422;2023-01-16T04:13:08;93835.63;;;0.90
40045;BMP280;25735;48.122;11.422;2023-01-16T04:15:37;93837.00;;;0.95
40045;BMP280;25735;48.122;11.422;2023-01-16T04:18:03;93820.06;;;0.89
40045;BMP280;25735;48.122;11.422;2023-01-16T04:20:29;93813.66;;;0.86
40045;BMP280;25735;48.122;11.422;2023-01-16T04:22:55;93803.56;;;0.82
40045;BMP280;25735;48.122;11.422;2023-01-16T04:25:21;93797.19;;;0.88
40045;BMP280;25735;48.122;11.422;2023-01-16T04:27:46;93786.03;;;0.81
40045;BMP280;25735;48.122;11.422;2023-01-16T04:30:12;93783.66;;;0.83
40045;BMP280;25735;48.122;11.422;2023-01-16T04:32:37;93769.53;;;0.73
40045;BMP280;25735;48.122;11.422;2023-01-16T04:35:04;93753.97;;;0.72
40045;BMP280;25735;48.122;11.422;2023-01-16T04:37:29;93759.59;;;0.74
40045;BMP280;25735;48.122;11.422;2023-01-16T04:39:55;93750.81;;;0.64
40045;BMP280;25735;48.122;11.422;2023-01-16T04:42:20;93749.03;;;0.70
40045;BMP280;25735;48.122;11.422;2023-01-16T04:44:45;93735.25;;;0.63
40045;BMP280;25735;48.122;11.422;2023-01-16T04:47:11;93729.59;;;0.52
40045;BMP280;25735;48.122;11.422;2023-01-16T04:49:36;93728.41;;;0.53
40045;BMP280;25735;48.122;11.422;2023-01-16T04:52:02;93719.66;;;0.53
40045;BMP280;25735;48.122;11.422;2023-01-16T04:54:27;93716.34;;;0.49
40045;BMP280;25735;48.122;11.422;2023-01-16T04:56:53;93712.19;;;0.39
40045;BMP280;25735;48.122;11.422;2023-01-16T04:59:18;93703.28;;;0.42
40045;BMP280;25735;48.122;11.422;2023-01-16T05:01:44;93701.09;;;0.40
40045;BMP280;25735;48.122;11.422;2023-01-16T05:04:10;93700.50;;;0.36
40045;BMP280;25735;48.122;11.422;2023-01-16T05:06:37;93694.41;;;0.45
40045;BMP280;25735;48.122;11.422;2023-01-16T05:09:04;93696.19;;;0.56
40045;BMP280;25735;48.122;11.422;2023-01-16T05:11:29;93683.25;;;0.55
40045;BMP280;25735;48.122;11.422;2023-01-16T05:13:55;93684.91;;;0.53
40045;BMP280;25735;48.122;11.422;2023-01-16T05:16:20;93683.25;;;0.55
40045;BMP280;25735;48.122;11.422;2023-01-16T05:18:45;93671.25;;;0.51
40045;BMP280;25735;48.122;11.422;2023-01-16T05:21:10;93669.63;;;0.53
40045;BMP280;25735;48.122;11.422;2023-01-16T05:23:36;93666.50;;;0.55
40045;BMP280;25735;48.122;11.422;2023-01-16T05:26:02;93657.88;;;0.51
40045;BMP280;25735;48.122;11.422;2023-01-16T05:28:28;93657.56;;;0.49
40045;BMP280;25735;48.122;11.422;2023-01-16T05:30:54;93650.31;;;0.40
40045;BMP280;25735;48.122;11.422;2023-01-16T05:33:19;93636.66;;;0.38
40045;BMP280;25735;48.122;11.422;2023-01-16T05:35:46;93632.50;;;0.28
40045;BMP280;25735;48.122;11.422;2023-01-16T05:38:12;93631.03;;;0.36
40045;BMP280;25735;48.122;11.422;2023-01-16T05:40:37;93623.03;;;0.36
40045;BMP280;25735;48.122;11.422;2023-01-16T05:43:03;93615.28;;;0.38
40045;BMP280;25735;48.122;11.422;2023-01-16T05:45:28;93603.13;;;0.37
40045;BMP280;25735;48.122;11.422;2023-01-16T05:47:53;93603.44;;;0.39
40045;BMP280;25735;48.122;11.422;2023-01-16T05:50:19;93606.25;;;0.27
40045;BMP280;25735;48.122;11.422;2023-01-16T05:52:44;93599.88;;;0.25
40045;BMP280;25735;48.122;11.422;2023-01-16T05:55:09;93579.41;;;0.22
40045;BMP280;25735;48.122;11.422;2023-01-16T05:57:34;93588.75;;;0.17
40045;BMP280;25735;48.122;11.422;2023-01-16T06:00:00;93573.91;;;0.25
40045;BMP280;25735;48.122;11.422;2023-01-16T06:02:25;93573.91;;;0.34
40045;BMP280;25735;48.122;11.422;2023-01-16T06:04:52;93572.28;;;0.36
40045;BMP280;25735;48.122;11.422;2023-01-16T06:07:17;93570.34;;;0.37
40045;BMP280;25735;48.122;11.422;2023-01-16T06:09:42;93561.44;;;0.31
40045;BMP280;25735;48.122;11.422;2023-01-16T06:12:12;93550.84;;;0.45
40045;BMP280;25735;48.122;11.422;2023-01-16T06:14:38;93542.88;;;0.36
40045;BMP280;25735;48.122;11.422;2023-01-16T06:17:04;93529.81;;;0.38
40045;BMP280;25735;48.122;11.422;2023-01-16T06:19:29;93529.22;;;0.26
40045;BMP280;25735;48.122;11.422;2023-01-16T06:21:54;93511.44;;;0.23
40045;BMP280;25735;48.122;11.422;2023-01-16T06:24:19;93509.06;;;0.33
40045;BMP280;25735;48.122;11.422;2023-01-16T06:26:45;93501.19;;;0.30
40045;BMP280;25735;48.122;11.422;2023-01-16T06:29:10;93497.19;;;0.26
40045;BMP280;25735;48.122;11.422;2023-01-16T06:31:35;93488.56;;;0.30
40045;BMP280;25735;48.122;11.422;2023-01-16T06:34:01;93486.81;;;0.28
40045;BMP280;25735;48.122;11.422;2023-01-16T06:36:26;93472.56;;;0.22
40045;BMP280;25735;48.122;11.422;2023-01-16T06:38:52;93479.81;;;0.30
40045;BMP280;25735;48.122;11.422;2023-01-16T06:41:17;93471.66;;;0.25
40045;BMP280;25735;48.122;11.422;2023-01-16T06:43:42;93460.41;;;0.21
40045;BMP280;25735;48.122;11.422;2023-01-16T06:46:08;93444.94;;;0.33
40045;BMP280;25735;48.122;11.422;2023-01-16T06:48:33;93451.78;;;0.26
40045;BMP280;25735;48.122;11.422;2023-01-16T06:51:00;93432.50;;;0.30
40045;BMP280;25735;48.122;11.422;2023-01-16T06:53:25;93429.84;;;0.22
40045;BMP280;25735;48.122;11.422;2023-01-16T06:55:50;93423.63;;;0.16
40045;BMP280;25735;48.122;11.422;2023-01-16T06:58:15;93410.88;;;0.20
40045;BMP280;25735;48.122;11.422;2023-01-16T07:00:41;93413.56;;;0.11
40045;BMP280;25735;48.122;11.422;2023-01-16T07:03:06;93394.88;;;0.11
40045;BMP280;25735;48.122;11.422;2023-01-16T07:05:31;93397.81;;;0.13
40045;BMP280;25735;48.122;11.422;2023-01-16T07:07:57;93397.22;;;0.18
40045;BMP280;25735;48.122;11.422;2023-01-16T07:10:23;93388.63;;;0.14
40045;BMP280;25735;48.122;11.422;2023-01-16T07:12:49;93375.13;;;0.17
40045;BMP280;25735;48.122;11.422;2023-01-16T07:15:15;93369.63;;;0.21
40045;BMP280;25735;48.122;11.422;2023-01-16T07:17:59;93353.88;;;0.23
40045;BMP280;25735;48.122;11.422;2023-01-16T07:20:49;93356.13;;;0.15
40045;BMP280;25735;48.122;11.422;2023-01-16T07:23:36;93358.91;;;0.29
40045;BMP280;25735;48.122;11.422;2023-01-16T07:26:04;93346.69;;;0.37
40045;BMP280;25735;48.122;11.422;2023-01-16T07:28:31;93342.44;;;0.54
40045;BMP280;25735;48.122;11.422;2023-01-16T07:30:56;93343.88;;;0.64
40045;BMP280;25735;48.122;11.422;2023-01-16T07:33:22;93338.19;;;0.71
40045;BMP280;25735;48.122;11.422;2023-01-16T07:35:48;93332.09;;;0.70
40045;BMP280;25735;48.122;11.422;2023-01-16T07:38:13;93327.84;;;0.64
40045;BMP280;25735;48.122;11.422;2023-01-16T07:40:38;93313.72;;;0.86
40045;BMP280;25735;48.122;11.422;2023-01-16T07:43:04;93308.13;;;0.84
40045;BMP280;25735;48.122;11.422;2023-01-16T07:45:29;93299.28;;;1.07
40045;BMP280;25735;48.122;11.422;2023-01-16T07:47:54;93292.41;;;1.01
40045;BMP280;25735;48.122;11.422;2023-01-16T07:50:20;93285.16;;;0.92
40045;BMP280;25735;48.122;11.422;2023-01-16T07:52:45;93273.97;;;1.17
40045;BMP280;25735;48.122;11.422;2023-01-16T07:55:12;93281.56;;;1.47
40045;BMP280;25735;48.122;11.422;2023-01-16T07:57:38;93270.84;;;1.33
40045;BMP280;25735;48.122;11.422;2023-01-16T08:00:05;93263.09;;;1.49
40045;BMP280;25735;48.122;11.422;2023-01-16T08:02:32;93262.56;;;1.59
40045;BMP280;25735;48.122;11.422;2023-01-16T08:04:57;93256.16;;;1.71
40045;BMP280;25735;48.122;11.422;2023-01-16T08:07:22;93248.03;;;1.80
40045;BMP280;25735;48.122;11.422;2023-01-16T08:09:48;93239.66;;;1.72
40045;BMP280;25735;48.122;11.422;2023-01-16T08:12:13;93227.50;;;1.91
40045;BMP280;25735;48.122;11.422;2023-01-16T08:14:38;93230.19;;;2.05
40045;BMP280;25735;48.122;11.422;2023-01-16T08:17:04;93221.84;;;2.18
40045;BMP280;25735;48.122;11.422;2023-01-16T08:19:30;93216.81;;;2.45
40045;BMP280;25735;48.122;11.422;2023-01-16T08:21:55;93213.66;;;2.26
40045;BMP280;25735;48.122;11.422;2023-01-16T08:24:20;93212.41;;;2.61
40045;BMP280;25735;48.122;11.422;2023-01-16T08:26:45;93209.81;;;2.47
40045;BMP280;25735;48.122;11.422;2023-01-16T08:29:11;93196.25;;;2.56
40045;BMP280;25735;48.122;11.422;2023-01-16T08:31:36;93191.44;;;2.80
40045;BMP280;25735;48.122;11.422;2023-01-16T08:34:02;93181.13;;;2.73
40045;BMP280;25735;48.122;11.422;2023-01-16T08:36:27;93166.53;;;2.79
40045;BMP280;25735;48.122;11.422;2023-01-16T08:38:52;93165.28;;;2.75
40045;BMP280;25735;48.122;11.422;2023-01-16T08:41:18;93150.81;;;2.67
40045;BMP280;25735;48.122;11.422;2023-01-16T08:44:03;93133.84;;;2.75
40045;BMP280;25735;48.122;11.422;2023-01-16T08:46:59;93132.78;;;3.17
40045;BMP280;25735;48.122;11.422;2023-01-16T08:49:45;93123.47;;;2.88
40045;BMP280;25735;48.122;11.422;2023-01-16T08:52:29;93119.41;;;2.92
40045;BMP280;25735;48.122;11.422;2023-01-16T08:54:56;93118.50;;;3.01
40045;BMP280;25735;48.122;11.422;2023-01-16T08:57:22;93098.41;;;3.21
40045;BMP280;25735;48.122;11.422;2023-01-16T08:59:48;93082.84;;;3.25
40045;BMP280;25735;48.122;11.422;2023-01-16T09:02:13;93092.94;;;3.36
40045;BMP280;25735;48.122;11.422;2023-01-16T09:04:40;93089.28;;;3.38
40045;BMP280;25735;48.122;11.422;2023-01-16T09:07:05;93071.19;;;3.69
40045;BMP280;25735;48.122;11.422;2023-01-16T09:09:30;93064.41;;;3.79
40045;BMP280;25735;48.122;11.422;2023-01-16T09:11:57;93072.91;;;3.72
40045;BMP280;25735;48.122;11.422;2023-01-16T09:14:41;93064.56;;;4.06
40045;BMP280;25735;48.122;11.422;2023-01-16T09:17:07;93061.03;;;3.84
40045;BMP280;25735;48.122;11.422;2023-01-16T09:19:33;93055.94;;;3.92
40045;BMP280;25735;48.122;11.422;2023-01-16T09:21:59;93029.09;;;4.02
40045;BMP280;25735;48.122;11.422;2023-01-16T09:24:24;93039.91;;;4.19
40045;BMP280;25735;48.122;11.422;2023-01-16T09:26:50;93039.03;;;4.43
40045;BMP280;25735;48.122;11.422;2023-01-16T09:29:15;93035.63;;;4.43
40045;BMP280;25735;48.122;11.422;2023-01-16T09:31:40;93031.25;;;4.67
40045;BMP280;25735;48.122;11.422;2023-01-16T09:34:06;93018.28;;;4.49
40045;BMP280;25735;48.122;11.422;2023-01-16T09:36:31;93017.53;;;4.43
40045;BMP280;25735;48.122;11.422;2023-01-16T09:38:56;93009.72;;;4.45
40045;BMP280;25735;48.122;11.422;2023-01-16T09:41:22;93004.38;;;4.67
40045;BMP280;25735;48.122;11.422;2023-01-16T09:44:09;92999.25;;;4.69
40045;BMP280;25735;48.122;11.422;2023-01-16T09:46:39;92996.56;;;4.90
40045;BMP280;25735;48.122;11.422;2023-01-16T09:49:28;92982.38;;;4.74
40045;BMP280;25735;48.122;11.422;2023-01-16T09:52:04;92978.44;;;4.42
40045;BMP280;25735;48.122;11.422;2023-01-16T09:54:55;92959.56;;;4.31
40045;BMP280;25735;48.122;11.422;2023-01-16T09:57:40;92958.09;;;4.20
40045;BMP280;25735;48.122;11.422;2023-01-16T10:00:29;92945.69;;;4.38
40045;BMP280;25735;48.122;11.422;2023-01-16T10:02:55;92939.09;;;4.61
40045;BMP280;25735;48.122;11.422;2023-01-16T10:05:22;92913.19;;;4.69
40045;BMP280;25735;48.122;11.422;2023-01-16T10:08:11;92900.91;;;5.11
40045;BMP280;25735;48.122;11.422;2023-01-16T10:10:50;92900.22;;;4.73
40045;BMP280;25735;48.122;11.422;2023-01-16T10:16:04;92870.84;;;4.96
40045;BMP280;25735;48.122;11.422;2023-01-16T10:18:41;92871.22;;;5.43
40045;BMP280;25735;48.122;11.422;2023-01-16T10:23:54;92865.09;;;5.99
40045;BMP280;25735;48.122;11.422;2023-01-16T10:26:34;92864.53;;;6.11
40045;BMP280;25735;48.122;11.422;2023-01-16T10:31:48;92841.41;;;6.55
40045;BMP280;25735;48.122;11.422;2023-01-16T10:34:21;92823.91;;;6.67
40045;BMP280;25735;48.122;11.422;2023-01-16T10:36:51;92817.50;;;6.41
40045;BMP280;25735;48.122;11.422;2023-01-16T10:39:19;92812.00;;;6.81
40045;BMP280;25735;48.122;11.422;2023-01-16T10:41:48;92830.31;;;6.64
40045;BMP280;25735;48.122;11.422;2023-01-16T10:47:09;92811.31;;;6.75
40045;BMP280;25735;48.122;11.422;2023-01-16T10:49:53;92795.09;;;6.51
40045;BMP280;25735;48.122;11.422;2023-01-16T10:52:19;92794.66;;;6.47
40045;BMP280;25735;48.122;11.422;2023-01-16T10:54:44;92781.75;;;6.06
40045;BMP280;25735;48.122;11.422;2023-01-16T10:57:15;92763.84;;;6.38
40045;BMP280;25735;48.122;11.422;2023-01-16T10:59:42;92771.66;;;6.41
40045;BMP280;25735;48.122;11.422;2023-01-16T11:02:17;92747.72;;;6.85
40045;BMP280;25735;48.122;11.422;2023-01-16T11:04:46;92746.28;;;7.20
40045;BMP280;25735;48.122;11.422;2023-01-16T11:07:19;92750.97;;;7.02
40045;BMP280;25735;48.122;11.422;2023-01-16T11:09:45;92733.63;;;7.52
40045;BMP280;25735;48.122;11.422;2023-01-16T11:12:28;92713.75;;;7.49
40045;BMP280;25735;48.122;11.422;2023-01-16T11:15:22;92718.81;;;7.58
40045;BMP280;25735;48.122;11.422;2023-01-16T11:18:26;92701.63;;;7.92
40045;BMP280;25735;48.122;11.422;2023-01-16T11:23:47;92692.06;;;7.73
40045;BMP280;25735;48.122;11.422;2023-01-16T11:26:13;92692.16;;;7.67
40045;BMP280;25735;48.122;11.422;2023-01-16T11:28:42;92675.94;;;8.29
40045;BMP280;25735;48.122;11.422;2023-01-16T11:31:14;92669.53;;;8.58
40045;BMP280;25735;48.122;11.422;2023-01-16T11:34:09;92666.81;;;8.45
40045;BMP280;25735;48.122;11.422;2023-01-16T11:36:35;92666.38;;;7.66
40045;BMP280;25735;48.122;11.422;2023-01-16T11:39:01;92663.75;;;7.43
40045;BMP280;25735;48.122;11.422;2023-01-16T11:41:31;92641.22;;;8.46
40045;BMP280;25735;48.122;11.422;2023-01-16T11:44:11;92627.78;;;9.37
40045;BMP280;25735;48.122;11.422;2023-01-16T11:46:57;92623.53;;;8.71
40045;BMP280;25735;48.122;11.422;2023-01-16T11:49:39;92620.41;;;8.28
40045;BMP280;25735;48.122;11.422;2023-01-16T11:52:04;92620.81;;;8.19
40045;BMP280;25735;48.122;11.422;2023-01-16T11:54:34;92617.41;;;8.44
40045;BMP280;25735;48.122;11.422;2023-01-16T11:57:16;92624.00;;;9.07
40045;BMP280;25735;48.122;11.422;2023-01-16T12:05:25;92610.72;;;8.84
40045;BMP280;25735;48.122;11.422;2023-01-16T12:09:37;92603.00;;;9.00
40045;BMP280;25735;48.122;11.422;2023-01-16T12:14:14;92595.28;;;9.37
40045;BMP280;25735;48.122;11.422;2023-01-16T12:19:54;92562.94;;;9.52
40045;BMP280;25735;48.122;11.422;2023-01-16T12:28:59;92556.59;;;8.84
40045;BMP280;25735;48.122;11.422;2023-01-16T12:34:44;92562.94;;;7.97
40045;BMP280;25735;48.122;11.422;2023-01-16T12:40:18;92562.72;;;7.95
40045;BMP280;25735;48.122;11.422;2023-01-16T12:42:54;92552.53;;;7.88
40045;BMP280;25735;48.122;11.422;2023-01-16T12:45:59;92554.94;;;7.48
40045;BMP280;25735;48.122;11.422;2023-01-16T12:48:43;92554.41;;;7.18
40045;BMP280;25735;48.122;11.422;2023-01-16T12:51:41;92558.94;;;7.59
40045;BMP280;25735;48.122;11.422;2023-01-16T12:54:49;92562.84;;;7.58
40045;BMP280;25735;48.122;11.422;2023-01-16T12:59:46;92561.44;;;7.39
40045;BMP280;25735;48.122;11.422;2023-01-16T13:04:58;92608.28;;;6.93
40045;BMP280;25735;48.122;11.422;2023-01-16T13:07:29;92608.41;;;6.82
40045;BMP280;25735;48.122;11.422;2023-01-16T13:10:10;92599.97;;;6.73
40045;BMP280;25735;48.122;11.422;2023-01-16T13:13:00;92601.50;;;6.86
40045;BMP280;25735;48.122;11.422;2023-01-16T13:15:47;92595.34;;;7.22
40045;BMP280;25735;48.122;11.422;2023-01-16T13:18:21;92584.78;;;7.24
40045;BMP280;25735;48.122;11.422;2023-01-16T13:20:53;92593.94;;;7.34
40045;BMP280;25735;48.122;11.422;2023-01-16T13:23:47;92592.78;;;7.29
40045;BMP280;25735;48.122;11.422;2023-01-16T13:26:13;92595.47;;;7.29
40045;BMP280;25735;48.122;11.422;2023-01-16T13:31:54;92602.13;;;7.10
40045;BMP280;25735;48.122;11.422;2023-01-16T13:34:26;92601.28;;;7.02
40045;BMP280;25735;48.122;11.422;2023-01-16T13:37:16;92591.22;;;6.85
40045;BMP280;25735;48.122;11.422;2023-01-16T13:41:05;92589.81;;;6.97
40045;BMP280;25735;48.122;11.422;2023-01-16T13:42:59;92575.38;;;6.94
40045;BMP280;25735;48.122;11.422;2023-01-16T13:45:47;92570.50;;;7.11
40045;BMP280;25735;48.122;11.422;2023-01-16T13:48:13;92568.03;;;6.95
40045;BMP280;25735;48.122;11.422;2023-01-16T13:50:45;92569.03;;;6.73
40045;BMP280;25735;48.122;11.422;2023-01-16T13:53:13;92578.16;;;6.52
40045;BMP280;25735;48.122;11.422;2023-01-16T13:55:39;92582.72;;;6.57
40045;BMP280;25735;48.122;11.422;2023-01-16T13:58:14;92573.06;;;6.85
40045;BMP280;25735;48.122;11.422;2023-01-16T14:00:40;92557.59;;;6.86
40045;BMP280;25735;48.122;11.422;2023-01-16T14:03:26;92572.53;;;6.87
40045;BMP280;25735;48.122;11.422;2023-01-16T14:06:15;92568.38;;;6.86
40045;BMP280;25735;48.122;11.422;2023-01-16T14:11:33;92554.59;;;6.71
40045;BMP280;25735;48.122;11.422;2023-01-16T14:17:07;92585.91;;;6.38
40045;BMP280;25735;48.122;11.422;2023-01-16T14:19:38;92580.25;;;6.18
40045;BMP280;25735;48.122;11.422;2023-01-16T14:22:06;92582.44;;;5.95
40045;BMP280;25735;48.122;11.422;2023-01-16T14:24:45;92576.72;;;6.04
40045;BMP280;25735;48.122;11.422;2023-01-16T14:27:21;92569.75;;;6.14
40045;BMP280;25735;48.122;11.422;2023-01-16T14:29:52;92562.56;;;6.22
40045;BMP280;25735;48.122;11.422;2023-01-16T14:32:24;92561.66;;;5.90
40045;BMP280;25735;48.122;11.422;2023-01-16T14:34:57;92562.75;;;5.82
40045;BMP280;25735;48.122;11.422;2023-01-16T14:37:32;92563.09;;;5.68
40045;BMP280;25735;48.122;11.422;2023-01-16T14:40:03;92553.78;;;5.69
40045;BMP280;25735;48.122;11.422;2023-01-16T14:42:54;92546.72;;;5.71
40045;BMP280;25735;48.122;11.422;2023-01-16T14:45:42;92533.97;;;5.72
40045;BMP280;25735;48.122;11.422;2023-01-16T14:48:45;92534.59;;;5.54
40045;BMP280;25735;48.122;11.422;2023-01-16T14:57:11;92520.28;;;5.41
40045;BMP280;25735;48.122;11.422;2023-01-16T14:59:43;92527.63;;;5.40
40045;BMP280;25735;48.122;11.422;2023-01-16T15:02:19;92520.28;;;5.41
40045;BMP280;25735;48.122;11.422;2023-01-16T15:04:52;92513.75;;;5.31
40045;BMP280;25735;48.122;11.422;2023-01-16T15:07:20;92517.28;;;5.44
40045;BMP280;25735;48.122;11.422;2023-01-16T15:09:49;92519.84;;;5.32
40045;BMP280;25735;48.122;11.422;2023-01-16T15:12:16;92508.81;;;5.35
40045;BMP280;25735;48.122;11.422;2023-01-16T15:14:53;92523.06;;;5.30
40045;BMP280;25735;48.122;11.422;2023-01-16T15:17:32;92530.59;;;5.08
40045;BMP280;25735;48.122;11.422;2023-01-16T15:20:28;92521.06;;;5.07
40045;BMP280;25735;48.122;11.422;2023-01-16T15:23:28;92509.56;;;5.06
40045;BMP280;25735;48.122;11.422;2023-01-16T15:31:21;92522.66;;;4.86
40045;BMP280;25735;48.122;11.422;2023-01-16T15:34:02;92517.94;;;4.98
40045;BMP280;25735;48.122;11.422;2023-01-16T15:36:32;92512.38;;;4.90
40045;BMP280;25735;48.122;11.422;2023-01-16T15:39:00;92515.38;;;4.81
40045;BMP280;25735;48.122;11.422;2023-01-16T15:41:29;92502.22;;;4.73
40045;BMP280;25735;48.122;11.422;2023-01-16T15:44:16;92493.25;;;4.65
40045;BMP280;25735;48.122;11.422;2023-01-16T15:50:10;92503.84;;;4.52
40045;BMP280;25735;48.122;11.422;2023-01-16T15:52:37;92504.56;;;4.52
40045;BMP280;25735;48.122;11.422;2023-01-16T15:55:27;92506.03;;;4.53
40045;BMP280;25735;48.122;11.422;2023-01-16T15:57:58;92516.81;;;4.48
40045;BMP280;25735;48.122;11.422;2023-01-16T16:00:28;92505.59;;;4.44
40045;BMP280;25735;48.122;11.422;2023-01-16T16:03:01;92508.06;;;4.37
40045;BMP280;25735;48.122;11.422;2023-01-16T16:05:29;92520.09;;;4.25
40045;BMP280;25735;48.122;11.422;2023-01-16T16:07:55;92509.16;;;4.18
40045;BMP280;25735;48.122;11.422;2023-01-16T16:10:22;92510.38;;;4.17
40045;BMP280;25735;48.122;11.422;2023-01-16T16:13:08;92502.16;;;3.98
40045;BMP280;25735;48.122;11.422;2023-01-16T16:15:33;92501.94;;;3.96
40045;BMP280;25735;48.122;11.422;2023-01-16T16:18:19;92503.41;;;3.92
40045;BMP280;25735;48.122;11.422;2023-01-16T16:20:46;92500.03;;;3.70
40045;BMP280;25735;48.122;11.422;2023-01-16T16:26:00;92510.88;;;3.43